Time;durP1;ratioP1;P1;durP2;ratioP2;P2;SDS_P1;SDS_P2;PMS_P1;PMS_P2;Temp;Humidity;BMP_temperature;BMP_pressure;BME280_temperature;BME280_humidity;BME280_pressure;Samples;Min_cycle;Max_cycle;Signal;HPM_P1;HPM_P2
2023/01/02 00:00:45;;;;;;;13.05;3.13;;;;;;;;;;4998120;28;20036;-90
2023/01/02 00:03:10;;;;;;;12.75;3.53;;;;;;;;;;5015522;28;20872;-90
2023/01/02 00:05:36;;;;;;;9.98;3.00;;;;;;;;;;5016512;28;20122;-90
2023/01/02 00:08:01;;;;;;;12.15;3.17;;;;;;;;;;4995442;28;20122;-90
2023/01/02 00:10:26;;;;;;;11.95;3.30;;;;;;;;;;5010760;28;20033;-90
2023/01/02 00:12:52;;;;;;;9.45;3.30;;;;;;;;;;5000188;28;20656;-90
2023/01/02 00:15:17;;;;;;;12.15;3.28;;;;;;;;;;4996837;28;20742;-90
2023/01/02 00:17:42;;;;;;;10.32;3.10;;;;;;;;;;4994889;28;20108;-90
2023/01/02 00:20:08;;;;;;;16.42;3.38;;;;;;;;;;4992129;28;20477;-90
2023/01/02 00:22:33;;;;;;;11.88;3.85;;;;;;;;;;5016542;28;20104;-89
2023/01/02 00:24:58;;;;;;;14.23;4.07;;;;;;;;;;5013336;28;20108;-90
2023/01/02 00:27:24;;;;;;;10.68;3.38;;;;;;;;;;5014321;28;20014;-91
2023/01/02 00:29:49;;;;;;;13.18;3.65;;;;;;;;;;5018287;28;20045;-90
2023/01/02 00:32:14;;;;;;;15.57;3.40;;;;;;;;;;4994389;28;20080;-89
2023/01/02 00:34:40;;;;;;;9.45;3.28;;;;;;;;;;5004632;28;20026;-88
2023/01/02 00:37:05;;;;;;;11.77;3.33;;;;;;;;;;5020528;28;20519;-89
2023/01/02 00:39:30;;;;;;;11.57;3.30;;;;;;;;;;5008117;28;20034;-89
2023/01/02 00:41:55;;;;;;;13.27;3.20;;;;;;;;;;4998796;28;20053;-90
2023/01/02 00:44:21;;;;;;;12.07;3.58;;;;;;;;;;5018708;28;20121;-89
2023/01/02 00:46:46;;;;;;;10.15;3.83;;;;;;;;;;4993353;28;20026;-89
2023/01/02 00:49:11;;;;;;;11.65;3.95;;;;;;;;;;5015267;28;20083;-90
2023/01/02 00:51:37;;;;;;;13.90;3.85;;;;;;;;;;5015656;28;20029;-90
2023/01/02 00:54:02;;;;;;;13.23;3.67;;;;;;;;;;4999292;28;20030;-89
2023/01/02 00:56:27;;;;;;;12.18;3.38;;;;;;;;;;5002210;28;20688;-90
2023/01/02 00:58:52;;;;;;;16.20;4.15;;;;;;;;;;4993273;28;20122;-89
2023/01/02 01:01:18;;;;;;;14.05;3.80;;;;;;;;;;5016378;28;20033;-90
2023/01/02 01:03:43;;;;;;;14.52;3.30;;;;;;;;;;5019949;28;20445;-90
2023/01/02 01:06:09;;;;;;;10.98;3.25;;;;;;;;;;4990615;28;20037;-90
2023/01/02 01:08:35;;;;;;;11.20;3.40;;;;;;;;;;5000075;28;20041;-90
2023/01/02 01:11:07;;;;;;;13.98;3.60;;;;;;;;;;4996477;28;20156;-91
2023/01/02 01:13:32;;;;;;;11.35;3.42;;;;;;;;;;4995020;28;20172;-88
2023/01/02 01:16:12;;;;;;;13.05;3.40;;;;;;;;;;5004727;28;20441;-88
2023/01/02 01:18:38;;;;;;;10.15;3.35;;;;;;;;;;5014913;28;20026;-89
2023/01/02 01:21:11;;;;;;;14.10;3.95;;;;;;;;;;5014754;28;20028;-89
2023/01/02 01:23:36;;;;;;;13.95;3.90;;;;;;;;;;4994494;28;20035;-89
2023/01/02 01:26:03;;;;;;;16.42;4.15;;;;;;;;;;4999922;28;20408;-90
2023/01/02 01:28:28;;;;;;;12.40;3.60;;;;;;;;;;4995958;28;20022;-90
2023/01/02 01:30:53;;;;;;;13.45;4.20;;;;;;;;;;5000559;28;20045;-90
2023/01/02 01:33:18;;;;;;;16.53;4.17;;;;;;;;;;4992516;28;20462;-90
2023/01/02 01:35:44;;;;;;;11.57;3.80;;;;;;;;;;5001232;28;20681;-90
2023/01/02 01:38:09;;;;;;;13.32;3.60;;;;;;;;;;4996634;28;20104;-90
2023/01/02 01:40:38;;;;;;;13.35;3.80;;;;;;;;;;5000143;28;20113;-89
2023/01/02 01:43:05;;;;;;;10.07;3.53;;;;;;;;;;5018239;28;20041;-89
2023/01/02 01:45:30;;;;;;;12.85;3.95;;;;;;;;;;4995427;28;20053;-90
2023/01/02 01:47:58;;;;;;;11.07;4.07;;;;;;;;;;5015511;28;20385;-90
2023/01/02 01:50:26;;;;;;;12.00;3.55;;;;;;;;;;4998241;28;20488;-90
2023/01/02 01:52:51;;;;;;;14.68;3.75;;;;;;;;;;5001558;28;20640;-89
2023/01/02 01:55:22;;;;;;;13.40;3.55;;;;;;;;;;5001066;28;20039;-90
2023/01/02 01:57:49;;;;;;;14.80;3.58;;;;;;;;;;5024192;28;20552;-89
2023/01/02 02:00:15;;;;;;;15.55;3.60;;;;;;;;;;4997146;28;20029;-89
2023/01/02 02:02:43;;;;;;;11.90;3.40;;;;;;;;;;5019513;28;20485;-89
2023/01/02 02:05:09;;;;;;;13.40;3.63;;;;;;;;;;5012641;28;20140;-90
2023/01/02 02:07:37;;;;;;;12.98;3.63;;;;;;;;;;5020320;28;20029;-89
2023/01/02 02:10:05;;;;;;;14.20;3.47;;;;;;;;;;5007365;28;20089;-90
2023/01/02 02:12:31;;;;;;;11.82;3.13;;;;;;;;;;5001859;28;20042;-91
2023/01/02 02:14:57;;;;;;;10.23;3.63;;;;;;;;;;5004100;28;20025;-90
2023/01/02 02:17:41;;;;;;;12.45;3.10;;;;;;;;;;5002347;28;20099;-90
2023/01/02 02:20:07;;;;;;;10.43;2.50;;;;;;;;;;5006251;28;20113;-90
2023/01/02 02:22:35;;;;;;;11.45;2.65;;;;;;;;;;5000418;28;20139;-90
2023/01/02 02:25:00;;;;;;;11.23;2.22;;;;;;;;;;4999399;28;20084;-91
2023/01/02 02:27:58;;;;;;;9.02;2.63;;;;;;;;;;5015636;28;20493;-91
2023/01/02 02:30:27;;;;;;;9.95;2.30;;;;;;;;;;4971180;28;20034;-90
2023/01/02 02:32:52;;;;;;;10.35;2.40;;;;;;;;;;5000295;28;20030;-89
2023/01/02 02:35:36;;;;;;;10.85;2.67;;;;;;;;;;5003358;28;20088;-91
2023/01/02 02:38:18;;;;;;;11.00;2.67;;;;;;;;;;5002850;28;20034;-89
2023/01/02 02:40:50;;;;;;;10.77;2.35;;;;;;;;;;5000873;28;20573;-89
2023/01/02 02:43:19;;;;;;;8.93;2.17;;;;;;;;;;4995860;28;20464;-90
2023/01/02 02:45:54;;;;;;;7.78;2.15;;;;;;;;;;5003747;28;20053;-90
2023/01/02 02:48:24;;;;;;;11.07;2.83;;;;;;;;;;5002516;28;20115;-90
2023/01/02 02:51:22;;;;;;;9.80;2.70;;;;;;;;;;5018782;28;20052;-89
2023/01/02 02:53:54;;;;;;;8.82;2.40;;;;;;;;;;4905645;29;20783;-90
2023/01/02 02:56:19;;;;;;;9.23;2.40;;;;;;;;;;4900869;29;20151;-90
2023/01/02 02:58:45;;;;;;;9.40;2.60;;;;;;;;;;4905800;29;20615;-89
2023/01/02 03:06:17;;;;;;;9.18;2.40;;;;;;;;;;4972418;28;20137;-90
2023/01/02 03:09:01;;;;;;;9.55;2.20;;;;;;;;;;4975819;28;20054;-90
2023/01/02 03:11:31;;;;;;;10.30;2.95;;;;;;;;;;4967298;28;20026;-90
2023/01/02 03:14:00;;;;;;;8.98;2.20;;;;;;;;;;4965690;28;20022;-90
2023/01/02 03:16:28;;;;;;;9.55;2.95;;;;;;;;;;4977384;28;20023;-89
2023/01/02 03:19:02;;;;;;;9.00;2.67;;;;;;;;;;4964901;28;20553;-91
2023/01/02 03:21:35;;;;;;;8.32;2.72;;;;;;;;;;4950518;28;20038;-90
2023/01/02 03:24:03;;;;;;;10.77;2.83;;;;;;;;;;4984624;28;20026;-91
2023/01/02 03:26:29;;;;;;;10.65;3.15;;;;;;;;;;4975449;28;20069;-90
2023/01/02 03:28:57;;;;;;;8.90;2.55;;;;;;;;;;4967859;28;20899;-90
2023/01/02 03:31:24;;;;;;;8.57;2.60;;;;;;;;;;4968778;28;20030;-90
2023/01/02 03:33:51;;;;;;;7.90;2.47;;;;;;;;;;4952049;28;20523;-90
2023/01/02 03:36:20;;;;;;;10.60;2.70;;;;;;;;;;4982794;28;20058;-91
2023/01/02 03:39:06;;;;;;;8.10;2.58;;;;;;;;;;4959769;28;20049;-90
2023/01/02 03:41:39;;;;;;;8.68;2.53;;;;;;;;;;4963755;28;20050;-90
2023/01/02 03:44:05;;;;;;;9.48;3.10;;;;;;;;;;4967762;28;20634;-90
2023/01/02 03:46:40;;;;;;;7.40;2.40;;;;;;;;;;4966142;28;20049;-90
2023/01/02 03:49:07;;;;;;;7.70;2.15;;;;;;;;;;4982630;28;20042;-91
2023/01/02 03:51:33;;;;;;;8.00;2.53;;;;;;;;;;4974863;28;20113;-91
2023/01/02 03:53:59;;;;;;;7.95;2.22;;;;;;;;;;4982331;28;20445;-91
2023/01/02 03:56:36;;;;;;;6.97;2.20;;;;;;;;;;4968850;28;20026;-90
2023/01/02 03:59:16;;;;;;;7.05;1.90;;;;;;;;;;4968696;28;20018;-89
2023/01/02 04:01:52;;;;;;;7.53;1.67;;;;;;;;;;4970139;28;20018;-91
2023/01/02 04:04:21;;;;;;;5.72;1.52;;;;;;;;;;4964300;28;20057;-90
2023/01/02 04:06:48;;;;;;;7.40;1.80;;;;;;;;;;4982167;28;20061;-90
2023/01/02 04:09:23;;;;;;;7.15;1.85;;;;;;;;;;4995721;28;20037;-89
2023/01/02 04:11:51;;;;;;;5.47;1.45;;;;;;;;;;4983744;28;20026;-90
2023/01/02 04:14:17;;;;;;;6.95;1.73;;;;;;;;;;4968645;28;20026;-90
2023/01/02 04:16:44;;;;;;;5.38;1.48;;;;;;;;;;4955300;28;20023;-90
2023/01/02 04:19:12;;;;;;;8.52;2.20;;;;;;;;;;4963139;28;20035;-90
2023/01/02 04:21:39;;;;;;;5.97;1.80;;;;;;;;;;4968575;28;20226;-89
2023/01/02 04:24:12;;;;;;;6.20;2.10;;;;;;;;;;4981526;28;20136;-90
2023/01/02 04:26:47;;;;;;;6.60;2.03;;;;;;;;;;4968315;28;20141;-90
2023/01/02 04:29:13;;;;;;;8.55;2.58;;;;;;;;;;4984777;28;20508;-90
2023/01/02 04:31:56;;;;;;;9.18;2.47;;;;;;;;;;4973363;28;20034;-89
2023/01/02 04:34:22;;;;;;;8.63;2.30;;;;;;;;;;4984513;28;20026;-89
2023/01/02 04:36:48;;;;;;;7.75;2.30;;;;;;;;;;4984444;28;20034;-90
2023/01/02 04:39:13;;;;;;;8.55;2.30;;;;;;;;;;4965406;28;20039;-90
2023/01/02 04:41:39;;;;;;;7.18;2.30;;;;;;;;;;4968345;28;20049;-90
2023/01/02 04:44:04;;;;;;;8.77;3.03;;;;;;;;;;4991427;28;20553;-90
2023/01/02 04:46:29;;;;;;;8.02;2.63;;;;;;;;;;4959345;28;20077;-90
2023/01/02 04:48:55;;;;;;;10.57;2.70;;;;;;;;;;4972108;28;20030;-90
2023/01/02 04:51:21;;;;;;;8.15;2.67;;;;;;;;;;4983450;28;20031;-90
2023/01/02 04:53:47;;;;;;;7.32;2.30;;;;;;;;;;4981967;28;20065;-90
2023/01/02 04:56:12;;;;;;;7.75;2.70;;;;;;;;;;4983544;28;20073;-91
2023/01/02 04:58:37;;;;;;;7.22;2.60;;;;;;;;;;4965848;28;20030;-91
2023/01/02 05:01:07;;;;;;;8.98;3.00;;;;;;;;;;4963455;28;20041;-91
2023/01/02 05:03:32;;;;;;;7.13;2.38;;;;;;;;;;4968505;28;20037;-91
2023/01/02 05:05:58;;;;;;;8.32;2.67;;;;;;;;;;4956700;28;20046;-91
2023/01/02 05:08:23;;;;;;;9.48;2.50;;;;;;;;;;4933423;28;20108;-91
2023/01/02 05:10:49;;;;;;;7.95;2.55;;;;;;;;;;4955964;28;20109;-91
2023/01/02 05:13:14;;;;;;;7.78;2.50;;;;;;;;;;4967809;28;20047;-92
2023/01/02 05:15:39;;;;;;;7.35;2.45;;;;;;;;;;4960674;28;20070;-91
2023/01/02 05:18:04;;;;;;;8.65;2.40;;;;;;;;;;4954318;28;22004;-91
2023/01/02 05:20:30;;;;;;;7.60;2.63;;;;;;;;;;4966175;28;20079;-90
2023/01/02 05:25:39;;;;;;;8.10;2.20;;;;;;;;;;4965780;28;20029;-91
2023/01/02 05:28:04;;;;;;;8.95;2.63;;;;;;;;;;4958324;28;20031;-90
2023/01/02 05:30:30;;;;;;;8.10;2.45;;;;;;;;;;4966037;28;20034;-91
2023/01/02 05:32:55;;;;;;;8.05;2.40;;;;;;;;;;4950356;28;20045;-90
2023/01/02 05:35:20;;;;;;;8.73;2.60;;;;;;;;;;4966684;28;20627;-91
2023/01/02 05:37:46;;;;;;;7.28;2.40;;;;;;;;;;4945148;28;20019;-90
2023/01/02 05:42:49;;;;;;;7.80;2.10;;;;;;;;;;4965342;28;20031;-90
2023/01/02 05:45:15;;;;;;;7.65;2.38;;;;;;;;;;4965604;28;20792;-90
2023/01/02 05:47:40;;;;;;;9.00;1.80;;;;;;;;;;4963048;28;20026;-90
2023/01/02 05:50:06;;;;;;;6.53;1.92;;;;;;;;;;4966157;28;20034;-90
2023/01/02 05:52:31;;;;;;;8.55;1.92;;;;;;;;;;4953860;28;20030;-91
2023/01/02 05:54:56;;;;;;;6.22;1.80;;;;;;;;;;4953048;28;20054;-90
2023/01/02 05:57:21;;;;;;;7.75;2.10;;;;;;;;;;4964660;28;20023;-90
2023/01/02 05:59:47;;;;;;;6.78;1.92;;;;;;;;;;4952876;28;20031;-90
2023/01/02 06:02:12;;;;;;;6.97;1.98;;;;;;;;;;4954315;28;20040;-90
2023/01/02 06:04:37;;;;;;;7.20;2.00;;;;;;;;;;4964640;28;20054;-90
2023/01/02 06:07:02;;;;;;;6.43;1.80;;;;;;;;;;4951625;28;20042;-91
2023/01/02 06:09:28;;;;;;;6.88;1.65;;;;;;;;;;4966289;28;20110;-91
2023/01/02 06:11:53;;;;;;;6.93;1.90;;;;;;;;;;4956496;28;20019;-91
2023/01/02 06:14:18;;;;;;;12.32;2.28;;;;;;;;;;4961515;28;20030;-90
2023/01/02 06:16:44;;;;;;;6.07;1.70;;;;;;;;;;4964619;28;20442;-90
2023/01/02 06:19:09;;;;;;;26.83;2.85;;;;;;;;;;4952051;28;20077;-90
2023/01/02 06:21:34;;;;;;;6.35;1.55;;;;;;;;;;4967680;28;20312;-91
2023/01/02 06:24:00;;;;;;;9.20;1.70;;;;;;;;;;4953543;28;20058;-90
2023/01/02 06:26:27;;;;;;;5.18;1.40;;;;;;;;;;4962787;28;20034;-89
2023/01/02 06:28:55;;;;;;;7.60;1.65;;;;;;;;;;4955147;28;20495;-90
2023/01/02 06:31:21;;;;;;;5.10;1.30;;;;;;;;;;4957044;28;20116;-91
2023/01/02 06:33:46;;;;;;;5.53;1.52;;;;;;;;;;4949500;28;20026;-90
2023/01/02 06:36:13;;;;;;;5.25;1.60;;;;;;;;;;4947857;28;20031;-90
2023/01/02 06:38:38;;;;;;;6.25;1.58;;;;;;;;;;4951155;28;20054;-91
2023/01/02 06:41:05;;;;;;;8.43;1.70;;;;;;;;;;4947342;28;20635;-91
2023/01/02 06:43:31;;;;;;;7.88;1.52;;;;;;;;;;4965980;28;20030;-90
2023/01/02 06:45:58;;;;;;;5.63;1.58;;;;;;;;;;4951388;28;20108;-91
2023/01/02 06:48:23;;;;;;;5.80;1.60;;;;;;;;;;4948679;28;20069;-91
2023/01/02 06:50:48;;;;;;;5.65;1.52;;;;;;;;;;4951500;28;20046;-91
2023/01/02 06:53:13;;;;;;;5.90;1.50;;;;;;;;;;4970547;28;20470;-91
2023/01/02 06:55:39;;;;;;;6.97;1.23;;;;;;;;;;4961815;28;20027;-91
2023/01/02 06:58:04;;;;;;;6.82;1.77;;;;;;;;;;4952873;28;20786;-90
2023/01/02 07:00:29;;;;;;;4.95;1.40;;;;;;;;;;4958739;28;20014;-91
2023/01/02 07:02:55;;;;;;;5.85;1.60;;;;;;;;;;4963645;28;20585;-90
2023/01/02 07:05:20;;;;;;;5.80;1.50;;;;;;;;;;4983652;28;20073;-90
2023/01/02 07:07:45;;;;;;;5.93;1.55;;;;;;;;;;4979935;28;20034;-91
2023/01/02 07:10:11;;;;;;;6.22;1.55;;;;;;;;;;4972239;28;20359;-91
2023/01/02 07:12:36;;;;;;;6.10;1.58;;;;;;;;;;4964662;28;20869;-92
2023/01/02 07:15:06;;;;;;;6.13;1.50;;;;;;;;;;4970709;28;20022;-91
2023/01/02 07:17:32;;;;;;;6.53;1.33;;;;;;;;;;4968877;28;20109;-91
2023/01/02 07:19:57;;;;;;;4.68;1.25;;;;;;;;;;4974782;28;20508;-90
2023/01/02 07:22:24;;;;;;;4.28;1.02;;;;;;;;;;4978646;28;20022;-89
2023/01/02 07:24:49;;;;;;;4.28;1.20;;;;;;;;;;4986290;28;20104;-90
2023/01/02 07:27:14;;;;;;;5.03;1.40;;;;;;;;;;4971823;28;20626;-91
2023/01/02 07:29:40;;;;;;;8.93;1.40;;;;;;;;;;4966586;28;20021;-90
2023/01/02 07:32:05;;;;;;;4.50;1.25;;;;;;;;;;4971215;28;20026;-90
2023/01/02 07:34:31;;;;;;;6.20;1.40;;;;;;;;;;4969764;28;20692;-90
2023/01/02 07:36:56;;;;;;;5.07;1.10;;;;;;;;;;4985825;28;20034;-90
2023/01/02 07:39:22;;;;;;;4.40;1.20;;;;;;;;;;4968800;28;20828;-89
2023/01/02 07:41:47;;;;;;;4.03;1.17;;;;;;;;;;4984784;28;20034;-91
2023/01/02 07:44:12;;;;;;;4.07;1.17;;;;;;;;;;4972957;28;20772;-90
2023/01/02 07:46:38;;;;;;;5.07;1.08;;;;;;;;;;4983236;28;20520;-90
2023/01/02 07:49:03;;;;;;;4.07;1.10;;;;;;;;;;4968356;28;20421;-90
2023/01/02 07:51:29;;;;;;;4.38;1.20;;;;;;;;;;4969579;28;20034;-90
2023/01/02 07:53:55;;;;;;;5.40;1.20;;;;;;;;;;4987623;28;20057;-91
2023/01/02 07:56:20;;;;;;;7.22;1.65;;;;;;;;;;4974278;28;20568;-91
2023/01/02 07:58:46;;;;;;;4.78;1.10;;;;;;;;;;4984391;28;20025;-92
2023/01/02 08:01:11;;;;;;;5.50;1.40;;;;;;;;;;4981385;28;20970;-92
2023/01/02 08:03:37;;;;;;;3.92;1.00;;;;;;;;;;4970133;28;20092;-92
2023/01/02 08:06:12;;;;;;;4.13;1.02;;;;;;;;;;4959352;28;20053;-92
2023/01/02 08:08:38;;;;;;;7.18;1.25;;;;;;;;;;4950375;28;20038;-92
2023/01/02 08:11:06;;;;;;;4.93;1.20;;;;;;;;;;4968328;28;20051;-91
2023/01/02 08:13:31;;;;;;;5.35;1.23;;;;;;;;;;4952161;28;20025;-92
2023/01/02 08:15:56;;;;;;;4.75;1.15;;;;;;;;;;4944701;28;20022;-92
2023/01/02 08:18:22;;;;;;;5.18;1.20;;;;;;;;;;4955027;28;20271;-91
2023/01/02 08:20:47;;;;;;;5.28;1.20;;;;;;;;;;4955997;28;20023;-92
2023/01/02 08:23:12;;;;;;;4.15;1.10;;;;;;;;;;4939326;28;20019;-91
2023/01/02 08:25:38;;;;;;;4.47;0.90;;;;;;;;;;4958966;28;20035;-91
2023/01/02 08:28:03;;;;;;;3.72;1.00;;;;;;;;;;4950563;28;20050;-91
2023/01/02 08:33:31;;;;;;;3.58;1.10;;;;;;;;;;4916634;28;20113;-91
2023/01/02 08:35:57;;;;;;;4.13;1.00;;;;;;;;;;4968202;28;20038;-92
2023/01/02 08:38:22;;;;;;;5.05;0.90;;;;;;;;;;4966818;28;20030;-91
2023/01/02 08:40:47;;;;;;;5.25;1.02;;;;;;;;;;4949982;28;20785;-91
2023/01/02 08:43:12;;;;;;;4.10;1.00;;;;;;;;;;4947469;28;20506;-92
2023/01/02 08:45:39;;;;;;;3.28;0.85;;;;;;;;;;4966254;28;20034;-90
2023/01/02 08:48:05;;;;;;;4.05;0.82;;;;;;;;;;4964176;28;20217;-91
2023/01/02 08:50:30;;;;;;;4.07;0.88;;;;;;;;;;4963884;28;20105;-90
2023/01/02 08:52:55;;;;;;;3.20;0.70;;;;;;;;;;4961356;28;20505;-91
2023/01/02 08:55:21;;;;;;;3.78;0.90;;;;;;;;;;4963254;28;20035;-92
2023/01/02 08:57:46;;;;;;;4.75;1.20;;;;;;;;;;4963507;28;20397;-91
2023/01/02 09:00:12;;;;;;;4.05;1.00;;;;;;;;;;4945786;28;20136;-91
2023/01/02 09:02:41;;;;;;;5.40;0.90;;;;;;;;;;4952697;28;20026;-96
2023/01/02 09:05:06;;;;;;;2.88;0.80;;;;;;;;;;4969008;28;20038;-96
2023/01/02 09:07:32;;;;;;;3.72;0.75;;;;;;;;;;4956368;28;20042;-96
2023/01/02 09:09:58;;;;;;;2.90;0.70;;;;;;;;;;4975491;28;20039;-96
2023/01/02 09:12:23;;;;;;;6.05;0.98;;;;;;;;;;4974374;28;20031;-96
2023/01/02 09:14:50;;;;;;;3.05;0.80;;;;;;;;;;4964245;28;20030;-96
2023/01/02 09:17:31;;;;;;;3.30;0.73;;;;;;;;;;4978439;28;20086;-96
2023/01/02 09:20:11;;;;;;;0.73;0.35;;;;;;;;;;4972825;28;20019;-96
2023/01/02 09:22:38;;;;;;;3.75;0.75;;;;;;;;;;4965947;28;21184;-96
2023/01/02 09:25:04;;;;;;;1.85;0.50;;;;;;;;;;4970370;28;20110;-96
2023/01/02 09:27:31;;;;;;;2.33;0.57;;;;;;;;;;4972338;28;20035;-96
2023/01/02 09:29:57;;;;;;;2.90;0.70;;;;;;;;;;4967454;28;20023;-96
2023/01/02 09:32:23;;;;;;;2.72;0.60;;;;;;;;;;4973120;28;20054;-96
2023/01/02 09:34:51;;;;;;;3.45;0.50;;;;;;;;;;4975321;28;20031;-96
2023/01/02 09:37:23;;;;;;;1.42;0.40;;;;;;;;;;4975091;28;20038;-96
2023/01/02 09:39:49;;;;;;;;;;;;;;;;;;4976685;28;20034;-92
2023/01/02 09:42:16;;;;;;;3.67;0.70;;;;;;;;;;4958386;28;20270;-92
2023/01/02 09:44:43;;;;;;;7.75;1.00;;;;;;;;;;4957082;28;20493;-92
2023/01/02 09:47:16;;;;;;;2.95;0.70;;;;;;;;;;4955550;28;20022;-92
2023/01/02 09:49:42;;;;;;;13.55;2.30;;;;;;;;;;4946467;28;20053;-93
2023/01/02 09:52:10;;;;;;;1.67;0.47;;;;;;;;;;4948680;28;20541;-91
2023/01/02 09:54:35;;;;;;;2.40;0.52;;;;;;;;;;4948840;28;20061;-91
2023/01/02 09:57:13;;;;;;;4.28;0.70;;;;;;;;;;4964213;28;20027;-92
2023/01/02 09:59:45;;;;;;;2.63;0.60;;;;;;;;;;4964711;28;20061;-92
2023/01/02 10:02:20;;;;;;;5.30;0.82;;;;;;;;;;4967034;28;20023;-92
2023/01/02 10:05:16;;;;;;;2.25;0.50;;;;;;;;;;4959994;28;20050;-92
2023/01/02 10:07:56;;;;;;;2.80;0.60;;;;;;;;;;4970819;28;20044;-93
2023/01/02 10:10:43;;;;;;;5.50;0.77;;;;;;;;;;4987586;28;20113;-94
2023/01/02 10:13:08;;;;;;;4.03;0.80;;;;;;;;;;4971338;28;20034;-93
2023/01/02 10:15:35;;;;;;;6.82;0.80;;;;;;;;;;4969401;28;20074;-93
2023/01/02 10:18:22;;;;;;;2.67;0.60;;;;;;;;;;4983309;28;20018;-94
2023/01/02 10:21:08;;;;;;;4.72;0.90;;;;;;;;;;4994094;28;20026;-94
2023/01/02 10:23:37;;;;;;;2.85;0.70;;;;;;;;;;4971333;28;20053;-93
2023/01/02 10:26:04;;;;;;;2.88;0.73;;;;;;;;;;4969715;28;20118;-93
2023/01/02 10:28:43;;;;;;;2.42;0.70;;;;;;;;;;4973115;28;20148;-93
2023/01/02 10:31:21;;;;;;;4.55;0.90;;;;;;;;;;4981619;28;20026;-95
2023/01/02 10:33:50;;;;;;;4.80;1.00;;;;;;;;;;4998228;28;20046;-94
2023/01/02 10:36:38;;;;;;;2.42;0.65;;;;;;;;;;4986316;28;20804;-94
2023/01/02 10:39:21;;;;;;;4.47;1.20;;;;;;;;;;4974054;28;20019;-96
2023/01/02 10:41:49;;;;;;;1.98;0.60;;;;;;;;;;4995553;28;20014;-95
2023/01/02 10:44:14;;;;;;;4.00;0.90;;;;;;;;;;4979066;28;20499;-94
2023/01/02 10:46:40;;;;;;;3.45;0.82;;;;;;;;;;4966608;28;20022;-93
2023/01/02 10:49:09;;;;;;;3.80;0.90;;;;;;;;;;4976899;28;20030;-93
2023/01/02 10:51:40;;;;;;;3.85;0.90;;;;;;;;;;4972489;28;20027;-93
2023/01/02 10:54:08;;;;;;;1.92;0.60;;;;;;;;;;4976832;28;20153;-93
2023/01/02 10:56:35;;;;;;;2.40;0.50;;;;;;;;;;4964624;28;20126;-93
2023/01/02 10:59:15;;;;;;;8.18;0.85;;;;;;;;;;4968505;28;20030;-93
2023/01/02 11:02:10;;;;;;;2.70;0.70;;;;;;;;;;4970330;28;20037;-92
2023/01/02 11:04:44;;;;;;;2.97;0.65;;;;;;;;;;4958483;28;20389;-93
2023/01/02 11:07:26;;;;;;;2.30;0.70;;;;;;;;;;4962258;28;20532;-96
2023/01/02 11:09:56;;;;;;;2.75;0.73;;;;;;;;;;4965509;28;20114;-96
2023/01/02 11:12:22;;;;;;;4.35;0.60;;;;;;;;;;4956546;28;20077;-96
2023/01/02 11:14:47;;;;;;;4.07;0.60;;;;;;;;;;4965300;28;20030;-96
2023/01/02 11:17:20;;;;;;;2.35;0.50;;;;;;;;;;4970172;28;20015;-96
2023/01/02 11:19:50;;;;;;;3.15;0.70;;;;;;;;;;4973269;28;20023;-96
2023/01/02 11:22:18;;;;;;;4.22;0.70;;;;;;;;;;4960899;28;20034;-96
2023/01/02 11:24:49;;;;;;;1.52;0.52;;;;;;;;;;4982466;28;20023;-96
2023/01/02 11:27:15;;;;;;;4.20;0.77;;;;;;;;;;4962278;28;20023;-96
2023/01/02 11:29:44;;;;;;;2.92;0.60;;;;;;;;;;4971005;28;20110;-96
2023/01/02 11:32:20;;;;;;;3.55;0.70;;;;;;;;;;4968972;28;20038;-96
2023/01/02 11:34:54;;;;;;;3.00;0.60;;;;;;;;;;4943901;28;20031;-92
2023/01/02 11:37:25;;;;;;;2.42;0.50;;;;;;;;;;4967902;28;20033;-92
2023/01/02 11:40:11;;;;;;;3.50;0.60;;;;;;;;;;4952209;28;20193;-93
2023/01/02 11:45:22;;;;;;;2.72;0.70;;;;;;;;;;4961784;28;20410;-91
2023/01/02 11:47:49;;;;;;;2.92;0.50;;;;;;;;;;4967842;28;20026;-91
2023/01/02 11:50:20;;;;;;;3.30;0.80;;;;;;;;;;4951462;28;20022;-92
2023/01/02 11:52:50;;;;;;;2.60;0.60;;;;;;;;;;4959404;28;20331;-92
2023/01/02 11:55:23;;;;;;;4.55;0.88;;;;;;;;;;4967094;28;20031;-91
2023/01/02 11:57:49;;;;;;;3.38;0.70;;;;;;;;;;4954239;28;20023;-93
2023/01/02 12:00:16;;;;;;;6.40;0.80;;;;;;;;;;4947517;28;20033;-92
2023/01/02 12:02:43;;;;;;;3.30;0.73;;;;;;;;;;4949187;28;20463;-92
2023/01/02 12:05:13;;;;;;;3.80;0.77;;;;;;;;;;4959849;28;20054;-91
2023/01/02 12:07:45;;;;;;;3.13;0.70;;;;;;;;;;4947015;28;20023;-92
2023/01/02 12:10:14;;;;;;;2.13;0.50;;;;;;;;;;4956737;28;20023;-96
2023/01/02 12:12:39;;;;;;;2.25;0.50;;;;;;;;;;4965910;28;20049;-96
2023/01/02 12:15:28;;;;;;;5.35;0.50;;;;;;;;;;4958516;28;20019;-96
2023/01/02 12:18:17;;;;;;;3.08;0.73;;;;;;;;;;4954413;28;20038;-96
2023/01/02 12:20:46;;;;;;;3.78;0.60;;;;;;;;;;4973775;28;20026;-96
2023/01/02 12:23:11;;;;;;;2.03;0.52;;;;;;;;;;4980121;28;20027;-96
2023/01/02 12:25:36;;;;;;;4.22;0.60;;;;;;;;;;4964535;28;20490;-96
2023/01/02 12:28:15;;;;;;;2.10;0.40;;;;;;;;;;4963944;28;20039;-96
2023/01/02 12:30:46;;;;;;;2.80;0.40;;;;;;;;;;4963422;28;20027;-96
2023/01/02 12:33:15;;;;;;;3.17;0.57;;;;;;;;;;4961820;28;20029;-96
2023/01/02 12:36:13;;;;;;;4.50;0.70;;;;;;;;;;4979143;28;20026;-96
2023/01/02 12:38:51;;;;;;;1.90;0.50;;;;;;;;;;4905354;29;20028;-96
2023/01/02 12:41:46;;;;;;;12.07;3.78;;;;;;;;;;4900203;29;20052;-95
2023/01/02 12:44:36;;;;;;;8.82;2.25;;;;;;;;;;4858960;29;20022;-96
2023/01/02 12:47:10;;;;;;;5.00;1.08;;;;;;;;;;5011788;23;20085;-93
2023/01/02 12:49:35;;;;;;;4.53;0.80;;;;;;;;;;4999407;28;20396;-93
2023/01/02 12:52:29;;;;;;;;;;;;;;;;;;;;;
2023/01/02 12:55:00;;;;;;;3.22;0.57;;;;;;;;;;5013597;28;20673;-94
2023/01/02 12:57:29;;;;;;;4.00;0.75;;;;;;;;;;4998746;28;20032;-92
2023/01/02 13:00:13;;;;;;;5.97;0.88;;;;;;;;;;4997386;28;20036;-92
2023/01/02 13:02:44;;;;;;;3.35;0.60;;;;;;;;;;4993282;28;20026;-92
2023/01/02 13:05:15;;;;;;;5.30;0.98;;;;;;;;;;5001384;28;20088;-92
2023/01/02 13:07:45;;;;;;;7.78;1.83;;;;;;;;;;4996661;28;20030;-93
2023/01/02 13:10:16;;;;;;;7.90;2.20;;;;;;;;;;5004195;28;20024;-93
2023/01/02 13:12:41;;;;;;;9.75;2.47;;;;;;;;;;5010238;28;20029;-92
2023/01/02 13:15:26;;;;;;;8.65;2.42;;;;;;;;;;4998667;28;20051;-92
2023/01/02 13:17:56;;;;;;;6.15;1.65;;;;;;;;;;4997233;28;20034;-93
2023/01/02 13:20:32;;;;;;;8.10;1.67;;;;;;;;;;5017155;28;20053;-92
2023/01/02 13:23:04;;;;;;;5.70;1.40;;;;;;;;;;5020419;28;20061;-92
2023/01/02 13:25:31;;;;;;;5.72;1.17;;;;;;;;;;5004513;28;20112;-92
2023/01/02 13:27:57;;;;;;;3.03;0.70;;;;;;;;;;5005043;28;20030;-93
2023/01/02 13:30:32;;;;;;;2.92;0.70;;;;;;;;;;5000662;28;20040;-93
2023/01/02 13:32:57;;;;;;;3.85;0.80;;;;;;;;;;5018744;28;20063;-91
2023/01/02 13:35:22;;;;;;;6.28;0.80;;;;;;;;;;5006559;28;20022;-93
2023/01/02 13:37:49;;;;;;;5.45;0.80;;;;;;;;;;5020684;28;20060;-93
2023/01/02 13:40:23;;;;;;;4.57;0.68;;;;;;;;;;4999713;28;20032;-94
2023/01/02 13:42:57;;;;;;;4.85;0.73;;;;;;;;;;5016079;28;20026;-93
2023/01/02 13:45:28;;;;;;;4.93;0.75;;;;;;;;;;5016954;28;20049;-93
2023/01/02 13:47:55;;;;;;;5.78;1.05;;;;;;;;;;5005388;28;20037;-93
2023/01/02 13:50:23;;;;;;;4.05;0.93;;;;;;;;;;5001255;28;20045;-94
2023/01/02 13:53:11;;;;;;;6.90;1.30;;;;;;;;;;5000427;28;20034;-93
2023/01/02 13:55:39;;;;;;;6.50;1.13;;;;;;;;;;4998655;28;20030;-93
2023/01/02 13:58:11;;;;;;;6.35;1.00;;;;;;;;;;5021420;28;20904;-93
2023/01/02 14:00:37;;;;;;;4.20;0.70;;;;;;;;;;5004101;28;20029;-93
2023/01/02 14:03:34;;;;;;;6.78;1.08;;;;;;;;;;5016650;28;20029;-93
2023/01/02 14:06:04;;;;;;;3.42;0.60;;;;;;;;;;4976219;28;20037;-92
2023/01/02 14:08:31;;;;;;;4.47;0.70;;;;;;;;;;5001683;28;20030;-93
2023/01/02 14:10:59;;;;;;;5.85;0.90;;;;;;;;;;5006418;28;20025;-92
2023/01/02 14:13:44;;;;;;;5.28;0.80;;;;;;;;;;4995488;28;20124;-93
2023/01/02 14:16:22;;;;;;;5.40;0.90;;;;;;;;;;4997319;28;20572;-92
2023/01/02 14:19:04;;;;;;;3.45;0.90;;;;;;;;;;5000193;28;20041;-92
2023/01/02 14:21:36;;;;;;;7.20;1.15;;;;;;;;;;4999632;28;20044;-93
2023/01/02 14:24:02;;;;;;;5.78;1.23;;;;;;;;;;5021337;28;20033;-93
2023/01/02 14:26:34;;;;;;;5.72;1.08;;;;;;;;;;5003669;28;20033;-91
2023/01/02 14:29:06;;;;;;;6.13;1.10;;;;;;;;;;4997837;28;20463;-92
2023/01/02 14:31:32;;;;;;;5.75;0.95;;;;;;;;;;5002024;28;20026;-93
2023/01/02 14:33:58;;;;;;;6.75;1.20;;;;;;;;;;5002792;28;20034;-92
2023/01/02 14:36:43;;;;;;;6.20;1.15;;;;;;;;;;5019723;28;20095;-92
2023/01/02 14:39:18;;;;;;;7.13;1.13;;;;;;;;;;4999468;28;20110;-90
2023/01/02 14:44:49;;;;;;;5.82;1.30;;;;;;;;;;5020409;28;20060;-92
2023/01/02 14:47:17;;;;;;;8.45;1.70;;;;;;;;;;5020529;28;20077;-94
2023/01/02 14:49:45;;;;;;;4.30;1.20;;;;;;;;;;5000635;28;21491;-93
2023/01/02 14:52:25;;;;;;;7.55;1.92;;;;;;;;;;5013779;28;20091;-93
2023/01/02 14:54:54;;;;;;;6.10;1.20;;;;;;;;;;4999917;28;20068;-93
2023/01/02 14:57:31;;;;;;;5.22;1.35;;;;;;;;;;5001259;28;20021;-93
2023/01/02 14:59:58;;;;;;;5.55;1.50;;;;;;;;;;5017606;28;20121;-93
2023/01/02 15:02:28;;;;;;;6.65;1.50;;;;;;;;;;4997053;28;20030;-92
2023/01/02 15:04:56;;;;;;;3.05;0.80;;;;;;;;;;5001600;28;20037;-93
2023/01/02 15:07:26;;;;;;;6.57;1.05;;;;;;;;;;5018638;28;20038;-92
2023/01/02 15:10:00;;;;;;;4.72;0.80;;;;;;;;;;5014009;28;20121;-92
2023/01/02 15:15:12;;;;;;;3.25;0.90;;;;;;;;;;5019538;28;20036;-93